Accueil
METAR-TAF:

METAR-TAF

Aéroports :

Aéroport international de Paphos

Paphos, Chypre

latitude: 34-43N, longitude: 032-29E, altitude: 11 m

Observation

Le bulletin a été fait il y a 6 minutes, à 14:30 UTC
Vent 1 kt de sud-ouest
Température 15°C
Humidité 63%
Pression 1022 hPa
Visibilité 10 km ou plus
Quelques nuages à une hauteur de 2500 ft
Nuages épars à une hauteur de 5000 ft

METAR: LCPH 181430Z 23001KT 9999 FEW025 SCT050 15/08 Q1022

Heure: 16:36 (14:36 UTC)

Prévision

Le bulletin a été fait il y a 3 heures et 6 minutes, à 11:30 UTC
Prévision valable du 18 à 12 UTC au 19 à 12 UTC
Vent 9 kt de sud-est
Visibilité 10 km ou plus
Nuages épars à une hauteur de 2000 ft
Nuages épars à une hauteur de 5000 ft

TAF: LCPH 181130Z 1812/1912 13009KT 9999 SCT020 SCT050

Observations et prévisions météorologiques de plus de 4000 aéroports (messages METAR et TAF).

Les stations disponibles sont représentées par des disques jaunes et rouges sur la carte.

Passer la souris dessus pour voir le nom de la station.

Cliquer dessus pour voir les observations et prévisions météorologiques.

Pour changer de carte: cliquez sur les boutons verts avec une croix noire pour zoomer, sur le bouton vert avec un tiret pour effectuer un zoom arrière, ou sur les flèches vertes pour les cartes adjacentes.


METAR-TAF: